< Typhoon 202018 2020 Season Typhoon 202020 >
Typhoon 202019 (GONI)
General InformationTrack Information on Google MapsDetailed Wind InformationForecast History on Google MapsAccess Analytics MapList of All Images || NewsDisaster Info.WeblogTrackbackTyphoon FrontTwiphoonTyphoon Now!Typhoon ImaginationJMA Disaster Info. XMLResourceGoogle EarthGE AnimationAtom FeedGeoJSON
Detalied Best Track (Time Zone = UTC)
Year Month Day Hour Lat. Long. Pressure (hPa) Wind (kt) Class Image Chart
2020 10 26 12 14.1 141.7 1008 0 2 Image Chart
2020 10 26 18 14.6 141.7 1006 0 2 Image Chart
2020 10 27 00 15.1 141.6 1008 0 2 Image Chart
2020 10 27 06 15.7 141.5 1006 0 2 Image Chart
2020 10 27 12 16.0 141.1 1008 0 2 Image Chart
2020 10 27 18 16.2 140.7 1006 0 2 Image Chart
2020 10 28 00 16.4 140.0 1008 0 2 Image Chart
2020 10 28 06 16.4 139.3 1006 0 2 Image Chart
2020 10 28 12 16.5 138.6 1008 0 2 Image Chart
2020 10 28 18 16.6 137.8 1002 35 3 Image Chart
2020 10 29 00 16.6 136.7 998 45 3 Image Chart
2020 10 29 06 16.7 135.7 996 50 4 Image Chart
2020 10 29 12 16.7 134.5 985 65 5 Image Chart
2020 10 29 18 16.4 133.4 975 75 5 Image Chart
2020 10 30 00 16.4 132.7 965 85 5 Image Chart
2020 10 30 06 16.4 131.6 945 100 5 Image Chart
2020 10 30 12 16.1 130.9 915 115 5 Image Chart
2020 10 30 18 15.9 129.9 915 115 5 Image Chart
2020 10 31 00 15.3 128.8 915 115 5 Image Chart
2020 10 31 06 14.7 127.6 915 115 5 Image Chart
2020 10 31 12 14.2 126.5 915 115 5 Image Chart
2020 10 31 18 13.8 125.0 905 120 5 Image Chart
2020 11 1 00 13.5 123.6 945 100 5 Image Chart
2020 11 1 06 13.7 121.9 980 60 4 Image Chart
2020 11 1 12 14.3 121.3 996 45 3 Image Chart
2020 11 1 18 14.5 119.5 1000 35 3 Image Chart
2020 11 2 00 14.8 118.4 1000 35 3 Image Chart
2020 11 2 06 15.1 117.6 1000 35 3 Image Chart
2020 11 2 12 15.1 116.8 1000 35 3 Image Chart
2020 11 2 18 15.1 116.0 1002 35 3 Image Chart
2020 11 3 00 15.0 115.4 1002 35 3 Image Chart
2020 11 3 06 14.8 115.2 1002 35 3 Image Chart
2020 11 3 12 14.8 114.7 1002 35 3 Image Chart
2020 11 3 18 14.6 114.0 1002 35 3 Image Chart
2020 11 4 00 14.4 113.6 1002 35 3 Image Chart
2020 11 4 06 14.3 113.3 1000 40 3 Image Chart
2020 11 4 12 14.3 112.8 1000 40 3 Image Chart
2020 11 4 18 14.4 112.2 1000 40 3 Image Chart
2020 11 5 00 14.5 111.7 1000 40 3 Image Chart
2020 11 5 06 13.9 111.4 1002 35 3 Image Chart
2020 11 5 12 13.8 110.9 1006 0 2 Image Chart
2020 11 5 18 14.0 110.1 1008 0 2 Image Chart
2020 11 6 00 14.1 109.4 1008 0 2 Image Chart
2020 11 6 06 14.7 107.2 1008 0 2 Image Chart
Japan Meteorological Agency Best Track Data | Correction Date : 2021-02-04
< Typhoon 202018 2020 Season Typhoon 202020 >

Help